createdAt,value
2022-08-12T00:02:04.133Z,19.60
2022-08-12T00:07:29.069Z,19.50
2022-08-12T00:12:50.433Z,19.40
2022-08-12T00:18:14.578Z,19.40
2022-08-12T00:29:23.720Z,19.20
2022-08-12T00:34:51.666Z,19.10
2022-08-12T00:40:20.740Z,19.00
2022-08-12T00:45:53.851Z,19.00
2022-08-12T00:56:55.053Z,18.80
2022-08-12T01:02:12.259Z,18.90
2022-08-12T01:07:38.797Z,18.80
2022-08-12T01:12:47.717Z,18.70
2022-08-12T01:17:54.977Z,18.80
2022-08-12T01:23:22.193Z,18.60
2022-08-12T01:28:47.997Z,18.60
2022-08-12T01:34:28.737Z,18.50
2022-08-12T01:39:37.772Z,18.50
2022-08-12T01:44:55.201Z,18.40
2022-08-12T01:55:23.259Z,18.30
2022-08-12T02:00:59.746Z,18.30
2022-08-12T02:06:37.027Z,18.20
2022-08-12T02:11:55.644Z,18.10
2022-08-12T02:23:20.672Z,17.90
2022-08-12T02:28:34.802Z,17.60
2022-08-12T02:33:45.566Z,17.50
2022-08-12T02:39:08.313Z,17.40
2022-08-12T02:44:18.580Z,17.40
2022-08-12T02:49:31.815Z,17.30
2022-08-12T02:54:42.124Z,17.20
2022-08-12T02:59:56.006Z,17.00
2022-08-12T03:05:07.053Z,17.00
2022-08-12T03:10:17.646Z,16.80
2022-08-12T03:15:34.101Z,16.80
2022-08-12T03:20:51.078Z,16.80
2022-08-12T03:26:10.675Z,16.70
2022-08-12T03:43:16.760Z,16.60
2022-08-12T17:24:10.836Z,26.80
2022-08-12T17:29:32.119Z,26.70
2022-08-12T17:35:04.675Z,26.60
2022-08-12T17:40:34.904Z,26.60
2022-08-12T17:45:36.519Z,26.50
2022-08-12T17:50:41.551Z,26.40
2022-08-12T17:55:49.519Z,26.30
2022-08-12T18:00:53.059Z,26.20
2022-08-12T18:06:01.613Z,26.10
2022-08-12T18:12:05.380Z,26.00
2022-08-12T18:16:50.503Z,25.90
2022-08-12T18:22:01.818Z,25.90
2022-08-12T18:27:30.359Z,25.80
2022-08-12T18:32:44.109Z,25.70
2022-08-12T18:37:59.412Z,25.40
2022-08-12T18:43:04.242Z,25.30
2022-08-12T18:48:07.704Z,25.20
2022-08-12T18:54:06.245Z,25.00
2022-08-12T18:58:38.007Z,25.00
2022-08-12T19:04:06.738Z,24.80
2022-08-12T19:09:14.564Z,24.70
2022-08-12T19:14:28.213Z,24.60
2022-08-12T19:19:37.482Z,24.60
2022-08-12T19:25:02.274Z,24.40
2022-08-12T19:30:08.970Z,24.30
2022-08-12T19:40:38.532Z,24.30
2022-08-12T19:45:48.902Z,24.20
2022-08-12T19:50:53.855Z,24.10
2022-08-12T19:55:58.168Z,24.00
